sensor_id;sensor_type;location;lat;lon;timestamp;temperature;humidity
64689;DHT22;62504;46.070;14.492;2023-11-19T00:02:20;6.10;99.90
64689;DHT22;62504;46.070;14.492;2023-11-19T00:04:46;6.00;99.90
64689;DHT22;62504;46.070;14.492;2023-11-19T00:07:11;6.10;99.90
64689;DHT22;62504;46.070;14.492;2023-11-19T00:09:39;6.00;99.90
64689;DHT22;62504;46.070;14.492;2023-11-19T00:12:06;6.00;99.90
64689;DHT22;62504;46.070;14.492;2023-11-19T00:14:33;6.10;99.90
64689;DHT22;62504;46.070;14.492;2023-11-19T00:16:58;6.00;99.90
64689;DHT22;62504;46.070;14.492;2023-11-19T00:19:24;6.00;99.90
64689;DHT22;62504;46.070;14.492;2023-11-19T00:21:50;6.10;99.90
64689;DHT22;62504;46.070;14.492;2023-11-19T00:24:16;6.00;99.90
64689;DHT22;62504;46.070;14.492;2023-11-19T00:26:43;6.00;99.90
64689;DHT22;62504;46.070;14.492;2023-11-19T00:29:08;6.00;99.90
64689;DHT22;62504;46.070;14.492;2023-11-19T00:31:34;6.00;99.90
64689;DHT22;62504;46.070;14.492;2023-11-19T00:34:00;6.00;99.90
64689;DHT22;62504;46.070;14.492;2023-11-19T00:36:27;6.00;99.90
64689;DHT22;62504;46.070;14.492;2023-11-19T00:38:53;5.90;99.90
64689;DHT22;62504;46.070;14.492;2023-11-19T00:41:20;5.90;99.90
64689;DHT22;62504;46.070;14.492;2023-11-19T00:43:45;5.80;99.90
64689;DHT22;62504;46.070;14.492;2023-11-19T00:46:11;5.90;99.90
64689;DHT22;62504;46.070;14.492;2023-11-19T00:48:37;5.90;99.90
64689;DHT22;62504;46.070;14.492;2023-11-19T00:51:03;5.90;99.90
64689;DHT22;62504;46.070;14.492;2023-11-19T00:53:30;6.00;99.90
64689;DHT22;62504;46.070;14.492;2023-11-19T00:55:55;6.00;99.90
64689;DHT22;62504;46.070;14.492;2023-11-19T00:58:21;6.10;99.90
64689;DHT22;62504;46.070;14.492;2023-11-19T01:00:47;5.90;99.90
64689;DHT22;62504;46.070;14.492;2023-11-19T01:03:13;5.90;99.90
64689;DHT22;62504;46.070;14.492;2023-11-19T01:05:40;5.80;99.90
64689;DHT22;62504;46.070;14.492;2023-11-19T01:08:05;5.80;99.90
64689;DHT22;62504;46.070;14.492;2023-11-19T01:10:31;5.70;99.90
64689;DHT22;62504;46.070;14.492;2023-11-19T01:12:57;5.70;99.90
64689;DHT22;62504;46.070;14.492;2023-11-19T01:15:24;5.70;99.90
64689;DHT22;62504;46.070;14.492;2023-11-19T01:17:49;5.80;99.90
64689;DHT22;62504;46.070;14.492;2023-11-19T01:20:15;5.80;99.90
64689;DHT22;62504;46.070;14.492;2023-11-19T01:22:41;5.80;99.90
64689;DHT22;62504;46.070;14.492;2023-11-19T01:25:07;5.90;99.90
64689;DHT22;62504;46.070;14.492;2023-11-19T01:27:33;5.80;99.90
64689;DHT22;62504;46.070;14.492;2023-11-19T01:30:02;5.90;99.90
64689;DHT22;62504;46.070;14.492;2023-11-19T01:32:29;5.90;99.90
64689;DHT22;62504;46.070;14.492;2023-11-19T01:34:55;5.90;99.90
64689;DHT22;62504;46.070;14.492;2023-11-19T01:37:20;5.90;99.90
64689;DHT22;62504;46.070;14.492;2023-11-19T01:39:46;5.90;99.90
64689;DHT22;62504;46.070;14.492;2023-11-19T01:42:11;5.90;99.90
64689;DHT22;62504;46.070;14.492;2023-11-19T01:44:38;5.80;99.90
64689;DHT22;62504;46.070;14.492;2023-11-19T01:47:03;5.70;99.90
64689;DHT22;62504;46.070;14.492;2023-11-19T01:49:31;5.70;99.90
64689;DHT22;62504;46.070;14.492;2023-11-19T01:51:58;5.70;99.90
64689;DHT22;62504;46.070;14.492;2023-11-19T01:54:24;5.60;99.90
64689;DHT22;62504;46.070;14.492;2023-11-19T01:56:50;5.60;99.90
64689;DHT22;62504;46.070;14.492;2023-11-19T01:59:16;5.50;99.90
64689;DHT22;62504;46.070;14.492;2023-11-19T02:01:42;5.40;99.90
64689;DHT22;62504;46.070;14.492;2023-11-19T02:04:08;5.50;99.90
64689;DHT22;62504;46.070;14.492;2023-11-19T02:06:37;5.50;99.90
64689;DHT22;62504;46.070;14.492;2023-11-19T02:09:06;5.50;99.90
64689;DHT22;62504;46.070;14.492;2023-11-19T02:11:34;5.50;99.90
64689;DHT22;62504;46.070;14.492;2023-11-19T02:14:00;5.60;99.90
64689;DHT22;62504;46.070;14.492;2023-11-19T02:16:26;5.50;99.90
64689;DHT22;62504;46.070;14.492;2023-11-19T02:18:52;5.50;99.90
64689;DHT22;62504;46.070;14.492;2023-11-19T02:21:17;5.50;99.90
64689;DHT22;62504;46.070;14.492;2023-11-19T02:23:43;5.40;99.90
64689;DHT22;62504;46.070;14.492;2023-11-19T02:26:19;5.50;99.90
64689;DHT22;62504;46.070;14.492;2023-11-19T02:28:45;5.50;99.90
64689;DHT22;62504;46.070;14.492;2023-11-19T02:31:11;5.40;99.90
64689;DHT22;62504;46.070;14.492;2023-11-19T02:33:38;5.40;99.90
64689;DHT22;62504;46.070;14.492;2023-11-19T02:36:07;5.40;99.90
64689;DHT22;62504;46.070;14.492;2023-11-19T02:38:34;5.40;99.90
64689;DHT22;62504;46.070;14.492;2023-11-19T02:41:03;5.50;99.90
64689;DHT22;62504;46.070;14.492;2023-11-19T02:43:34;5.40;99.90
64689;DHT22;62504;46.070;14.492;2023-11-19T02:46:04;5.40;99.90
64689;DHT22;62504;46.070;14.492;2023-11-19T02:48:33;5.40;99.90
64689;DHT22;62504;46.070;14.492;2023-11-19T02:51:04;5.40;99.90
64689;DHT22;62504;46.070;14.492;2023-11-19T02:53:30;5.40;99.90
64689;DHT22;62504;46.070;14.492;2023-11-19T02:55:56;5.40;99.90
64689;DHT22;62504;46.070;14.492;2023-11-19T02:58:27;5.40;99.90
64689;DHT22;62504;46.070;14.492;2023-11-19T03:00:54;5.40;99.90
64689;DHT22;62504;46.070;14.492;2023-11-19T03:03:26;5.40;99.90
64689;DHT22;62504;46.070;14.492;2023-11-19T03:06:04;5.30;99.90
64689;DHT22;62504;46.070;14.492;2023-11-19T03:08:30;5.30;99.90
64689;DHT22;62504;46.070;14.492;2023-11-19T03:10:55;5.30;99.90
64689;DHT22;62504;46.070;14.492;2023-11-19T03:13:21;5.30;99.90
64689;DHT22;62504;46.070;14.492;2023-11-19T03:15:47;5.30;99.90
64689;DHT22;62504;46.070;14.492;2023-11-19T03:18:13;5.30;99.90
64689;DHT22;62504;46.070;14.492;2023-11-19T03:20:38;5.30;99.90
64689;DHT22;62504;46.070;14.492;2023-11-19T03:23:04;5.30;99.90
64689;DHT22;62504;46.070;14.492;2023-11-19T03:25:31;5.30;99.90
64689;DHT22;62504;46.070;14.492;2023-11-19T03:28:01;5.20;99.90
64689;DHT22;62504;46.070;14.492;2023-11-19T03:30:28;5.20;99.90
64689;DHT22;62504;46.070;14.492;2023-11-19T03:32:55;5.20;99.90
64689;DHT22;62504;46.070;14.492;2023-11-19T03:35:21;5.20;99.90
64689;DHT22;62504;46.070;14.492;2023-11-19T03:37:46;5.10;99.90
64689;DHT22;62504;46.070;14.492;2023-11-19T03:40:12;5.20;99.90
64689;DHT22;62504;46.070;14.492;2023-11-19T03:42:37;5.20;99.90
64689;DHT22;62504;46.070;14.492;2023-11-19T03:45:06;5.10;99.90
64689;DHT22;62504;46.070;14.492;2023-11-19T03:47:34;5.10;99.90
64689;DHT22;62504;46.070;14.492;2023-11-19T03:50:00;5.10;99.90
64689;DHT22;62504;46.070;14.492;2023-11-19T03:52:25;5.00;99.90
64689;DHT22;62504;46.070;14.492;2023-11-19T03:54:52;5.40;99.90
64689;DHT22;62504;46.070;14.492;2023-11-19T03:57:19;5.20;99.90
64689;DHT22;62504;46.070;14.492;2023-11-19T03:59:45;5.30;99.90
64689;DHT22;62504;46.070;14.492;2023-11-19T04:02:11;5.00;99.90
64689;DHT22;62504;46.070;14.492;2023-11-19T04:04:36;5.30;99.90
64689;DHT22;62504;46.070;14.492;2023-11-19T04:07:04;5.10;99.90
64689;DHT22;62504;46.070;14.492;2023-11-19T04:09:30;5.20;99.90
64689;DHT22;62504;46.070;14.492;2023-11-19T04:11:58;5.00;99.90
64689;DHT22;62504;46.070;14.492;2023-11-19T04:14:24;5.00;99.90
64689;DHT22;62504;46.070;14.492;2023-11-19T04:16:49;5.00;99.90
64689;DHT22;62504;46.070;14.492;2023-11-19T04:19:16;5.10;99.90
64689;DHT22;62504;46.070;14.492;2023-11-19T04:21:42;5.10;99.90
64689;DHT22;62504;46.070;14.492;2023-11-19T04:24:10;5.10;99.90
64689;DHT22;62504;46.070;14.492;2023-11-19T04:26:43;5.30;99.90
64689;DHT22;62504;46.070;14.492;2023-11-19T04:29:12;5.20;99.90
64689;DHT22;62504;46.070;14.492;2023-11-19T04:31:38;5.10;99.90
64689;DHT22;62504;46.070;14.492;2023-11-19T04:34:05;5.60;99.90
64689;DHT22;62504;46.070;14.492;2023-11-19T04:36:32;5.30;99.90
64689;DHT22;62504;46.070;14.492;2023-11-19T04:38:58;5.30;99.90
64689;DHT22;62504;46.070;14.492;2023-11-19T04:41:25;5.30;99.90
64689;DHT22;62504;46.070;14.492;2023-11-19T04:43:51;5.50;99.90
64689;DHT22;62504;46.070;14.492;2023-11-19T04:46:16;5.30;99.90
64689;DHT22;62504;46.070;14.492;2023-11-19T04:48:42;5.40;99.90
64689;DHT22;62504;46.070;14.492;2023-11-19T04:51:08;5.90;99.90
64689;DHT22;62504;46.070;14.492;2023-11-19T04:53:36;5.50;99.90
64689;DHT22;62504;46.070;14.492;2023-11-19T04:56:10;5.40;99.90
64689;DHT22;62504;46.070;14.492;2023-11-19T04:58:36;5.40;99.90
64689;DHT22;62504;46.070;14.492;2023-11-19T05:01:03;5.40;99.90
64689;DHT22;62504;46.070;14.492;2023-11-19T05:03:30;5.40;99.90
64689;DHT22;62504;46.070;14.492;2023-11-19T05:05:57;5.40;99.90
64689;DHT22;62504;46.070;14.492;2023-11-19T05:08:22;5.40;99.90
64689;DHT22;62504;46.070;14.492;2023-11-19T05:10:48;5.40;99.90
64689;DHT22;62504;46.070;14.492;2023-11-19T05:13:13;5.70;99.90
64689;DHT22;62504;46.070;14.492;2023-11-19T05:15:40;5.40;99.90
64689;DHT22;62504;46.070;14.492;2023-11-19T05:18:06;5.50;99.90
64689;DHT22;62504;46.070;14.492;2023-11-19T05:20:31;5.60;99.90
64689;DHT22;62504;46.070;14.492;2023-11-19T05:22:57;5.50;99.90
64689;DHT22;62504;46.070;14.492;2023-11-19T05:25:26;5.50;99.90
64689;DHT22;62504;46.070;14.492;2023-11-19T05:27:52;5.30;99.90
64689;DHT22;62504;46.070;14.492;2023-11-19T05:30:17;5.40;99.90
64689;DHT22;62504;46.070;14.492;2023-11-19T05:32:43;5.40;99.90
64689;DHT22;62504;46.070;14.492;2023-11-19T05:35:09;5.30;99.90
64689;DHT22;62504;46.070;14.492;2023-11-19T05:37:34;5.50;99.90
64689;DHT22;62504;46.070;14.492;2023-11-19T05:40:01;5.40;99.90
64689;DHT22;62504;46.070;14.492;2023-11-19T05:42:28;5.60;99.90
64689;DHT22;62504;46.070;14.492;2023-11-19T05:44:54;5.60;99.90
64689;DHT22;62504;46.070;14.492;2023-11-19T05:47:20;5.40;99.90
64689;DHT22;62504;46.070;14.492;2023-11-19T05:49:45;5.50;99.90
64689;DHT22;62504;46.070;14.492;2023-11-19T05:52:11;5.60;99.90
64689;DHT22;62504;46.070;14.492;2023-11-19T05:54:38;5.40;99.90
64689;DHT22;62504;46.070;14.492;2023-11-19T05:57:05;5.60;99.90
64689;DHT22;62504;46.070;14.492;2023-11-19T05:59:30;5.60;99.90
64689;DHT22;62504;46.070;14.492;2023-11-19T06:01:58;5.50;99.90
64689;DHT22;62504;46.070;14.492;2023-11-19T06:04:24;5.60;99.90
64689;DHT22;62504;46.070;14.492;2023-11-19T06:06:49;5.40;99.90
64689;DHT22;62504;46.070;14.492;2023-11-19T06:09:15;5.40;99.90
64689;DHT22;62504;46.070;14.492;2023-11-19T06:11:40;5.60;99.90
64689;DHT22;62504;46.070;14.492;2023-11-19T06:14:06;5.50;99.90
64689;DHT22;62504;46.070;14.492;2023-11-19T06:16:32;5.60;99.90
64689;DHT22;62504;46.070;14.492;2023-11-19T06:18:58;5.80;99.90
64689;DHT22;62504;46.070;14.492;2023-11-19T06:21:24;5.80;99.90
64689;DHT22;62504;46.070;14.492;2023-11-19T06:23:50;5.70;99.90
64689;DHT22;62504;46.070;14.492;2023-11-19T06:26:17;5.70;99.90
64689;DHT22;62504;46.070;14.492;2023-11-19T06:28:43;5.80;99.90
64689;DHT22;62504;46.070;14.492;2023-11-19T06:31:09;5.70;99.90
64689;DHT22;62504;46.070;14.492;2023-11-19T06:33:35;5.60;99.90
64689;DHT22;62504;46.070;14.492;2023-11-19T06:36:00;5.60;99.90
64689;DHT22;62504;46.070;14.492;2023-11-19T06:38:26;5.70;99.90
64689;DHT22;62504;46.070;14.492;2023-11-19T06:40:52;5.60;99.90
64689;DHT22;62504;46.070;14.492;2023-11-19T06:43:17;6.00;99.90
64689;DHT22;62504;46.070;14.492;2023-11-19T06:45:43;5.60;99.90
64689;DHT22;62504;46.070;14.492;2023-11-19T06:48:09;5.70;99.90
64689;DHT22;62504;46.070;14.492;2023-11-19T06:50:34;5.80;99.90
64689;DHT22;62504;46.070;14.492;2023-11-19T06:53:00;5.70;99.90
64689;DHT22;62504;46.070;14.492;2023-11-19T06:55:26;5.70;99.90
64689;DHT22;62504;46.070;14.492;2023-11-19T06:57:52;5.60;99.90
64689;DHT22;62504;46.070;14.492;2023-11-19T07:00:18;5.50;99.90
64689;DHT22;62504;46.070;14.492;2023-11-19T07:02:44;5.40;99.90
64689;DHT22;62504;46.070;14.492;2023-11-19T07:05:10;5.60;99.90
64689;DHT22;62504;46.070;14.492;2023-11-19T07:07:37;5.60;99.90
64689;DHT22;62504;46.070;14.492;2023-11-19T07:10:03;5.70;99.90
64689;DHT22;62504;46.070;14.492;2023-11-19T07:12:30;5.80;99.90
64689;DHT22;62504;46.070;14.492;2023-11-19T07:14:56;5.80;99.90
64689;DHT22;62504;46.070;14.492;2023-11-19T07:17:22;5.80;99.90
64689;DHT22;62504;46.070;14.492;2023-11-19T07:19:50;5.90;99.90
64689;DHT22;62504;46.070;14.492;2023-11-19T07:22:16;5.90;99.90
64689;DHT22;62504;46.070;14.492;2023-11-19T07:24:42;6.00;99.90
64689;DHT22;62504;46.070;14.492;2023-11-19T07:27:08;6.00;99.90
64689;DHT22;62504;46.070;14.492;2023-11-19T07:29:37;6.30;99.90
64689;DHT22;62504;46.070;14.492;2023-11-19T07:32:03;6.20;99.90
64689;DHT22;62504;46.070;14.492;2023-11-19T07:34:30;6.30;99.90
64689;DHT22;62504;46.070;14.492;2023-11-19T07:36:56;6.40;99.90
64689;DHT22;62504;46.070;14.492;2023-11-19T07:39:27;6.40;99.90
64689;DHT22;62504;46.070;14.492;2023-11-19T07:41:53;6.50;99.90
64689;DHT22;62504;46.070;14.492;2023-11-19T07:44:19;6.40;99.90
64689;DHT22;62504;46.070;14.492;2023-11-19T07:46:46;6.50;99.90
64689;DHT22;62504;46.070;14.492;2023-11-19T07:49:13;6.60;99.90
64689;DHT22;62504;46.070;14.492;2023-11-19T07:51:39;6.70;99.90
64689;DHT22;62504;46.070;14.492;2023-11-19T07:54:05;6.80;99.90
64689;DHT22;62504;46.070;14.492;2023-11-19T07:56:33;6.80;99.90
64689;DHT22;62504;46.070;14.492;2023-11-19T07:58:59;6.80;99.90
64689;DHT22;62504;46.070;14.492;2023-11-19T08:01:25;6.80;99.90
64689;DHT22;62504;46.070;14.492;2023-11-19T08:03:51;6.80;99.90
64689;DHT22;62504;46.070;14.492;2023-11-19T08:06:16;6.80;99.90
64689;DHT22;62504;46.070;14.492;2023-11-19T08:08:42;6.80;99.90
64689;DHT22;62504;46.070;14.492;2023-11-19T08:11:08;7.10;99.90
64689;DHT22;62504;46.070;14.492;2023-11-19T08:13:34;6.80;99.90
64689;DHT22;62504;46.070;14.492;2023-11-19T08:15:59;6.80;99.90
64689;DHT22;62504;46.070;14.492;2023-11-19T08:18:25;6.80;99.90
64689;DHT22;62504;46.070;14.492;2023-11-19T08:20:50;6.90;99.90
64689;DHT22;62504;46.070;14.492;2023-11-19T08:23:19;6.80;99.90
64689;DHT22;62504;46.070;14.492;2023-11-19T08:25:45;6.70;99.90
64689;DHT22;62504;46.070;14.492;2023-11-19T08:28:11;6.90;99.90
64689;DHT22;62504;46.070;14.492;2023-11-19T08:30:36;6.60;99.90
64689;DHT22;62504;46.070;14.492;2023-11-19T08:33:02;6.50;99.90
64689;DHT22;62504;46.070;14.492;2023-11-19T08:35:32;6.50;99.90
64689;DHT22;62504;46.070;14.492;2023-11-19T08:37:58;7.00;99.90
64689;DHT22;62504;46.070;14.492;2023-11-19T08:40:24;7.40;99.90
64689;DHT22;62504;46.070;14.492;2023-11-19T08:42:51;8.00;99.90
64689;DHT22;62504;46.070;14.492;2023-11-19T08:45:17;8.40;99.90
64689;DHT22;62504;46.070;14.492;2023-11-19T08:47:43;8.40;99.90
64689;DHT22;62504;46.070;14.492;2023-11-19T08:50:11;8.20;99.90
64689;DHT22;62504;46.070;14.492;2023-11-19T08:52:37;8.10;99.90
64689;DHT22;62504;46.070;14.492;2023-11-19T08:55:03;7.90;99.90
64689;DHT22;62504;46.070;14.492;2023-11-19T08:57:33;7.90;99.90
64689;DHT22;62504;46.070;14.492;2023-11-19T08:59:59;8.20;99.90
64689;DHT22;62504;46.070;14.492;2023-11-19T09:02:25;8.60;99.90
64689;DHT22;62504;46.070;14.492;2023-11-19T09:04:51;9.30;99.90
64689;DHT22;62504;46.070;14.492;2023-11-19T09:07:17;11.30;99.90
64689;DHT22;62504;46.070;14.492;2023-11-19T09:09:42;12.70;99.90
64689;DHT22;62504;46.070;14.492;2023-11-19T09:12:08;13.40;99.90
64689;DHT22;62504;46.070;14.492;2023-11-19T09:14:33;13.30;99.90
64689;DHT22;62504;46.070;14.492;2023-11-19T09:16:59;13.30;99.90
64689;DHT22;62504;46.070;14.492;2023-11-19T09:19:25;12.20;99.90
64689;DHT22;62504;46.070;14.492;2023-11-19T09:21:54;11.00;99.90
64689;DHT22;62504;46.070;14.492;2023-11-19T09:24:20;10.00;99.90
64689;DHT22;62504;46.070;14.492;2023-11-19T09:26:46;9.70;99.90
64689;DHT22;62504;46.070;14.492;2023-11-19T09:29:11;9.80;99.90
64689;DHT22;62504;46.070;14.492;2023-11-19T09:31:40;9.50;99.90
64689;DHT22;62504;46.070;14.492;2023-11-19T09:34:06;9.40;99.90
64689;DHT22;62504;46.070;14.492;2023-11-19T09:36:32;9.30;99.90
64689;DHT22;62504;46.070;14.492;2023-11-19T09:38:57;8.90;99.90
64689;DHT22;62504;46.070;14.492;2023-11-19T09:41:26;8.60;99.90
64689;DHT22;62504;46.070;14.492;2023-11-19T09:43:53;8.30;99.90
64689;DHT22;62504;46.070;14.492;2023-11-19T09:46:19;8.20;99.90
64689;DHT22;62504;46.070;14.492;2023-11-19T09:48:46;8.00;99.90
64689;DHT22;62504;46.070;14.492;2023-11-19T09:51:13;7.80;99.90
64689;DHT22;62504;46.070;14.492;2023-11-19T09:53:40;7.70;99.90
64689;DHT22;62504;46.070;14.492;2023-11-19T09:56:06;7.60;99.90
64689;DHT22;62504;46.070;14.492;2023-11-19T09:58:33;7.60;99.90
64689;DHT22;62504;46.070;14.492;2023-11-19T10:01:00;7.60;99.90
64689;DHT22;62504;46.070;14.492;2023-11-19T10:03:27;7.70;99.90
64689;DHT22;62504;46.070;14.492;2023-11-19T10:05:55;7.80;99.90
64689;DHT22;62504;46.070;14.492;2023-11-19T10:08:21;7.80;99.90
64689;DHT22;62504;46.070;14.492;2023-11-19T10:10:47;7.90;99.90
64689;DHT22;62504;46.070;14.492;2023-11-19T10:13:13;7.80;99.90
64689;DHT22;62504;46.070;14.492;2023-11-19T10:15:40;7.70;99.90
64689;DHT22;62504;46.070;14.492;2023-11-19T10:18:07;7.70;99.90
64689;DHT22;62504;46.070;14.492;2023-11-19T10:20:42;7.50;99.90
64689;DHT22;62504;46.070;14.492;2023-11-19T10:23:08;7.50;99.90
64689;DHT22;62504;46.070;14.492;2023-11-19T10:25:34;7.50;99.90
64689;DHT22;62504;46.070;14.492;2023-11-19T10:28:00;7.40;99.90
64689;DHT22;62504;46.070;14.492;2023-11-19T10:30:27;7.50;99.90
64689;DHT22;62504;46.070;14.492;2023-11-19T10:33:10;7.50;99.90
64689;DHT22;62504;46.070;14.492;2023-11-19T10:35:58;7.50;99.90
64689;DHT22;62504;46.070;14.492;2023-11-19T10:38:25;7.50;99.90
64689;DHT22;62504;46.070;14.492;2023-11-19T10:40:52;7.60;99.90
64689;DHT22;62504;46.070;14.492;2023-11-19T10:43:19;7.60;99.90
64689;DHT22;62504;46.070;14.492;2023-11-19T10:45:45;7.70;99.90
64689;DHT22;62504;46.070;14.492;2023-11-19T10:48:11;7.70;99.90
64689;DHT22;62504;46.070;14.492;2023-11-19T10:50:42;7.70;99.90
64689;DHT22;62504;46.070;14.492;2023-11-19T10:53:12;7.70;99.90
64689;DHT22;62504;46.070;14.492;2023-11-19T10:55:41;7.70;99.90
64689;DHT22;62504;46.070;14.492;2023-11-19T10:58:09;7.90;99.90
64689;DHT22;62504;46.070;14.492;2023-11-19T11:00:45;7.90;99.90
64689;DHT22;62504;46.070;14.492;2023-11-19T11:03:21;7.90;99.90
64689;DHT22;62504;46.070;14.492;2023-11-19T11:05:51;7.90;99.90
64689;DHT22;62504;46.070;14.492;2023-11-19T11:08:18;8.10;99.90
64689;DHT22;62504;46.070;14.492;2023-11-19T11:10:47;8.40;99.90
64689;DHT22;62504;46.070;14.492;2023-11-19T11:13:13;8.50;99.90
64689;DHT22;62504;46.070;14.492;2023-11-19T11:15:39;8.50;99.90
64689;DHT22;62504;46.070;14.492;2023-11-19T11:18:09;8.50;99.90
64689;DHT22;62504;46.070;14.492;2023-11-19T11:20:35;8.50;99.90
64689;DHT22;62504;46.070;14.492;2023-11-19T11:31:01;8.70;99.90
64689;DHT22;62504;46.070;14.492;2023-11-19T11:36:21;8.90;99.90
64689;DHT22;62504;46.070;14.492;2023-11-19T11:38:51;9.10;99.90
64689;DHT22;62504;46.070;14.492;2023-11-19T11:41:22;9.20;99.90
64689;DHT22;62504;46.070;14.492;2023-11-19T11:43:50;9.10;99.90
64689;DHT22;62504;46.070;14.492;2023-11-19T11:49:10;9.30;99.90
64689;DHT22;62504;46.070;14.492;2023-11-19T11:57:07;9.10;99.90
64689;DHT22;62504;46.070;14.492;2023-11-19T12:02:11;9.20;99.90
64689;DHT22;62504;46.070;14.492;2023-11-19T12:04:37;9.30;99.90
64689;DHT22;62504;46.070;14.492;2023-11-19T12:07:06;9.30;99.90
64689;DHT22;62504;46.070;14.492;2023-11-19T12:09:33;9.50;99.90
64689;DHT22;62504;46.070;14.492;2023-11-19T12:12:28;9.50;99.90
64689;DHT22;62504;46.070;14.492;2023-11-19T12:20:03;9.60;99.90
64689;DHT22;62504;46.070;14.492;2023-11-19T12:22:31;9.70;99.90
64689;DHT22;62504;46.070;14.492;2023-11-19T12:24:56;9.70;99.90
64689;DHT22;62504;46.070;14.492;2023-11-19T12:27:22;9.70;99.90
64689;DHT22;62504;46.070;14.492;2023-11-19T12:29:49;9.80;99.90
64689;DHT22;62504;46.070;14.492;2023-11-19T12:32:14;9.80;99.90
64689;DHT22;62504;46.070;14.492;2023-11-19T12:34:40;9.90;99.90
64689;DHT22;62504;46.070;14.492;2023-11-19T12:37:06;10.00;99.90
64689;DHT22;62504;46.070;14.492;2023-11-19T12:39:32;10.00;99.90
64689;DHT22;62504;46.070;14.492;2023-11-19T12:41:58;10.10;99.90
64689;DHT22;62504;46.070;14.492;2023-11-19T12:44:26;10.10;99.90
64689;DHT22;62504;46.070;14.492;2023-11-19T12:47:08;10.00;99.90
64689;DHT22;62504;46.070;14.492;2023-11-19T12:49:36;10.00;99.90
64689;DHT22;62504;46.070;14.492;2023-11-19T12:52:11;10.10;99.90
64689;DHT22;62504;46.070;14.492;2023-11-19T12:54:38;10.30;99.90
64689;DHT22;62504;46.070;14.492;2023-11-19T12:57:06;10.40;99.90
64689;DHT22;62504;46.070;14.492;2023-11-19T12:59:32;10.40;99.90
64689;DHT22;62504;46.070;14.492;2023-11-19T13:01:58;10.40;99.90
64689;DHT22;62504;46.070;14.492;2023-11-19T13:04:27;10.30;99.90
64689;DHT22;62504;46.070;14.492;2023-11-19T13:06:53;10.30;99.90
64689;DHT22;62504;46.070;14.492;2023-11-19T13:09:26;10.30;99.90
64689;DHT22;62504;46.070;14.492;2023-11-19T13:11:53;10.30;99.90
64689;DHT22;62504;46.070;14.492;2023-11-19T13:14:20;10.30;99.90
64689;DHT22;62504;46.070;14.492;2023-11-19T13:16:45;10.30;99.90
64689;DHT22;62504;46.070;14.492;2023-11-19T13:19:12;10.40;99.90
64689;DHT22;62504;46.070;14.492;2023-11-19T13:21:38;10.40;99.90
64689;DHT22;62504;46.070;14.492;2023-11-19T13:24:08;10.50;99.90
64689;DHT22;62504;46.070;14.492;2023-11-19T13:26:34;10.60;99.90
64689;DHT22;62504;46.070;14.492;2023-11-19T13:29:03;10.60;99.90
64689;DHT22;62504;46.070;14.492;2023-11-19T13:31:29;10.70;99.90
64689;DHT22;62504;46.070;14.492;2023-11-19T13:33:55;10.70;99.90
64689;DHT22;62504;46.070;14.492;2023-11-19T13:36:22;10.70;99.90
64689;DHT22;62504;46.070;14.492;2023-11-19T13:38:47;10.80;99.90
64689;DHT22;62504;46.070;14.492;2023-11-19T13:41:13;10.90;99.90
64689;DHT22;62504;46.070;14.492;2023-11-19T13:43:39;10.90;99.90
64689;DHT22;62504;46.070;14.492;2023-11-19T13:46:05;10.90;99.90
64689;DHT22;62504;46.070;14.492;2023-11-19T13:48:31;11.00;99.90
64689;DHT22;62504;46.070;14.492;2023-11-19T13:50:57;11.00;99.90
64689;DHT22;62504;46.070;14.492;2023-11-19T13:53:23;11.00;99.90
64689;DHT22;62504;46.070;14.492;2023-11-19T13:55:49;11.00;99.90
64689;DHT22;62504;46.070;14.492;2023-11-19T13:58:15;11.00;99.90
64689;DHT22;62504;46.070;14.492;2023-11-19T14:00:41;11.00;99.90
64689;DHT22;62504;46.070;14.492;2023-11-19T14:03:07;11.10;99.90
64689;DHT22;62504;46.070;14.492;2023-11-19T14:05:33;11.10;99.90
64689;DHT22;62504;46.070;14.492;2023-11-19T14:07:59;11.10;99.90
64689;DHT22;62504;46.070;14.492;2023-11-19T14:10:24;11.00;99.90
64689;DHT22;62504;46.070;14.492;2023-11-19T14:12:50;10.90;99.90
64689;DHT22;62504;46.070;14.492;2023-11-19T14:15:16;11.00;99.90
64689;DHT22;62504;46.070;14.492;2023-11-19T14:17:45;11.10;99.90
64689;DHT22;62504;46.070;14.492;2023-11-19T14:20:11;11.10;99.90
64689;DHT22;62504;46.070;14.492;2023-11-19T14:22:41;11.30;99.90
64689;DHT22;62504;46.070;14.492;2023-11-19T14:25:10;11.50;99.90
64689;DHT22;62504;46.070;14.492;2023-11-19T14:27:37;11.60;99.90
64689;DHT22;62504;46.070;14.492;2023-11-19T14:30:05;11.70;99.90
64689;DHT22;62504;46.070;14.492;2023-11-19T14:32:31;11.80;99.90
64689;DHT22;62504;46.070;14.492;2023-11-19T14:34:57;11.80;99.90
64689;DHT22;62504;46.070;14.492;2023-11-19T14:37:22;11.80;99.90
64689;DHT22;62504;46.070;14.492;2023-11-19T14:39:48;12.00;99.90
64689;DHT22;62504;46.070;14.492;2023-11-19T14:42:16;11.90;99.90
64689;DHT22;62504;46.070;14.492;2023-11-19T14:44:42;11.90;99.90
64689;DHT22;62504;46.070;14.492;2023-11-19T14:47:08;11.90;99.90
64689;DHT22;62504;46.070;14.492;2023-11-19T14:49:37;11.90;99.90
64689;DHT22;62504;46.070;14.492;2023-11-19T14:52:05;11.80;99.90
64689;DHT22;62504;46.070;14.492;2023-11-19T14:54:31;11.90;99.90
64689;DHT22;62504;46.070;14.492;2023-11-19T14:56:57;11.90;99.90
64689;DHT22;62504;46.070;14.492;2023-11-19T14:59:24;11.90;99.90
64689;DHT22;62504;46.070;14.492;2023-11-19T15:01:50;11.90;99.90
64689;DHT22;62504;46.070;14.492;2023-11-19T15:04:15;11.90;99.90
64689;DHT22;62504;46.070;14.492;2023-11-19T15:06:42;11.90;99.90
64689;DHT22;62504;46.070;14.492;2023-11-19T15:09:08;11.80;99.90
64689;DHT22;62504;46.070;14.492;2023-11-19T15:11:35;11.90;99.90
64689;DHT22;62504;46.070;14.492;2023-11-19T15:14:00;11.80;99.90
64689;DHT22;62504;46.070;14.492;2023-11-19T15:16:26;11.80;99.90
64689;DHT22;62504;46.070;14.492;2023-11-19T15:18:57;11.70;99.90
64689;DHT22;62504;46.070;14.492;2023-11-19T15:21:26;11.70;99.90
64689;DHT22;62504;46.070;14.492;2023-11-19T15:23:52;11.70;99.90
64689;DHT22;62504;46.070;14.492;2023-11-19T15:26:18;11.70;99.90
64689;DHT22;62504;46.070;14.492;2023-11-19T15:28:44;11.60;99.90
64689;DHT22;62504;46.070;14.492;2023-11-19T15:31:10;11.50;99.90
64689;DHT22;62504;46.070;14.492;2023-11-19T15:33:36;11.50;99.90
64689;DHT22;62504;46.070;14.492;2023-11-19T15:36:01;11.50;99.90
64689;DHT22;62504;46.070;14.492;2023-11-19T15:38:33;11.40;99.90
64689;DHT22;62504;46.070;14.492;2023-11-19T15:40:59;11.40;99.90
64689;DHT22;62504;46.070;14.492;2023-11-19T15:43:24;11.40;99.90
64689;DHT22;62504;46.070;14.492;2023-11-19T15:45:50;11.30;99.90
64689;DHT22;62504;46.070;14.492;2023-11-19T15:48:16;11.30;99.90
64689;DHT22;62504;46.070;14.492;2023-11-19T15:50:43;11.30;99.90
64689;DHT22;62504;46.070;14.492;2023-11-19T15:53:10;11.30;99.90